createdAt,value
2022-11-05T00:02:42.333Z,8.08
2022-11-05T00:08:06.108Z,8.05
2022-11-05T00:13:27.734Z,8.02
2022-11-05T00:18:31.981Z,7.96
2022-11-05T00:23:54.730Z,7.92
2022-11-05T00:28:57.841Z,7.85
2022-11-05T00:34:01.809Z,7.85
2022-11-05T00:39:06.869Z,7.83
2022-11-05T00:44:26.912Z,7.68
2022-11-05T00:49:30.838Z,7.52
2022-11-05T00:54:33.472Z,7.44
2022-11-05T00:59:36.093Z,7.53
2022-11-05T01:04:40.050Z,7.46
2022-11-05T01:09:42.619Z,7.52
2022-11-05T01:14:45.206Z,7.43
2022-11-05T01:19:49.129Z,7.21
2022-11-05T01:24:51.699Z,7.07
2022-11-05T01:29:54.291Z,7.11
2022-11-05T01:34:58.198Z,7.05
2022-11-05T01:40:01.023Z,7.01
2022-11-05T01:45:12.306Z,6.93
2022-11-05T01:50:24.222Z,7.08
2022-11-05T01:55:27.998Z,7.03
2022-11-05T02:00:31.390Z,6.94
2022-11-05T02:05:36.218Z,6.90
2022-11-05T02:10:38.956Z,6.76
2022-11-05T02:15:49.529Z,6.80
2022-11-05T02:20:59.477Z,6.81
2022-11-05T02:26:36.898Z,6.84
2022-11-05T02:31:44.322Z,6.75
2022-11-05T02:36:50.952Z,6.76
2022-11-05T02:42:09.207Z,6.72
2022-11-05T02:47:20.598Z,6.74
2022-11-05T02:52:29.310Z,6.72
2022-11-05T02:57:35.946Z,6.71
2022-11-05T03:02:40.017Z,6.66
2022-11-05T03:07:47.597Z,6.74
2022-11-05T03:12:59.680Z,6.66
2022-11-05T03:18:11.298Z,6.58
2022-11-05T03:23:26.845Z,6.64
2022-11-05T03:28:32.040Z,6.44
2022-11-05T03:33:37.644Z,6.43
2022-11-05T03:38:41.196Z,6.43
2022-11-05T03:43:46.686Z,6.55
2022-11-05T03:48:52.975Z,6.48
2022-11-05T03:53:57.426Z,6.53
2022-11-05T03:59:00.897Z,6.52
2022-11-05T04:04:05.585Z,6.46
2022-11-05T04:09:37.428Z,6.43
2022-11-05T04:14:40.119Z,6.42
2022-11-05T04:20:02.772Z,6.35
2022-11-05T04:25:06.702Z,6.39
2022-11-05T04:30:19.337Z,6.38
2022-11-05T04:35:23.501Z,6.46
2022-11-05T04:40:26.394Z,6.35
2022-11-05T04:45:30.634Z,6.35
2022-11-05T04:50:34.614Z,6.38
2022-11-05T04:55:37.200Z,6.31
2022-11-05T05:00:39.834Z,6.31
2022-11-05T05:05:43.762Z,6.20
2022-11-05T05:10:46.339Z,6.11
2022-11-05T05:15:48.911Z,6.03
2022-11-05T05:21:10.138Z,5.98
2022-11-05T05:26:12.780Z,5.93
2022-11-05T05:31:15.589Z,5.84
2022-11-05T05:36:19.526Z,5.80
2022-11-05T05:41:22.130Z,5.82
2022-11-05T05:46:25.043Z,5.78
2022-11-05T05:51:28.983Z,5.81
2022-11-05T05:56:31.579Z,5.79
2022-11-05T06:01:34.413Z,5.82
2022-11-05T06:06:38.424Z,5.90
2022-11-05T06:11:41.156Z,5.75
2022-11-05T06:16:43.752Z,5.68
2022-11-05T06:21:47.666Z,5.63
2022-11-05T06:26:50.265Z,5.67
2022-11-05T06:31:52.894Z,5.59
2022-11-05T06:36:56.812Z,5.54
2022-11-05T06:47:22.114Z,5.59
2022-11-05T06:52:27.092Z,5.58
2022-11-05T06:57:30.743Z,5.53
2022-11-05T07:02:33.416Z,5.59
2022-11-05T07:07:37.458Z,5.61
2022-11-05T07:12:40.031Z,5.68
2022-11-05T07:17:42.635Z,5.73
2022-11-05T07:22:46.541Z,5.81
2022-11-05T07:27:49.134Z,5.83
2022-11-05T07:32:51.732Z,5.88
2022-11-05T07:37:56.310Z,5.97
2022-11-05T07:42:59.868Z,6.06
2022-11-05T07:48:04.224Z,6.16
2022-11-05T07:53:10.937Z,6.28
2022-11-05T07:58:14.114Z,6.40
2022-11-05T08:03:18.571Z,6.48
2022-11-05T08:08:22.985Z,6.56
2022-11-05T08:13:25.559Z,6.86
2022-11-05T08:18:31.366Z,8.28
2022-11-05T08:23:35.300Z,8.19
2022-11-05T08:28:37.893Z,8.25
2022-11-05T08:33:40.492Z,7.65
2022-11-05T08:38:44.443Z,7.53
2022-11-05T08:43:47.137Z,7.52
2022-11-05T08:48:49.861Z,7.51
2022-11-05T08:53:53.757Z,7.55
2022-11-05T08:58:56.352Z,7.65
2022-11-05T09:03:58.914Z,7.81
2022-11-05T09:09:02.815Z,7.98
2022-11-05T09:14:05.374Z,8.02
2022-11-05T09:19:07.912Z,8.20
2022-11-05T09:24:11.855Z,8.34
2022-11-05T09:29:14.739Z,8.34
2022-11-05T09:34:17.405Z,8.57
2022-11-05T09:39:21.364Z,8.64
2022-11-05T09:44:27.289Z,8.82
2022-11-05T09:49:35.082Z,9.00
2022-11-05T09:54:40.053Z,9.03
2022-11-05T09:59:45.898Z,9.07
2022-11-05T10:04:51.396Z,9.21
2022-11-05T10:09:59.115Z,9.34
2022-11-05T10:15:08.254Z,9.57
2022-11-05T10:20:15.962Z,9.57
2022-11-05T10:25:21.704Z,9.77
2022-11-05T10:30:24.374Z,9.68
2022-11-05T10:35:30.634Z,9.84
2022-11-05T10:40:40.699Z,9.64
2022-11-05T10:45:49.871Z,9.72
2022-11-05T10:50:52.489Z,9.71
2022-11-05T10:55:58.361Z,9.89
2022-11-05T11:01:04.927Z,10.18
2022-11-05T11:06:19.309Z,10.34
2022-11-05T11:11:33.989Z,10.35
2022-11-05T11:16:39.092Z,10.00
2022-11-05T11:21:41.714Z,9.72
2022-11-05T11:26:45.652Z,10.37
2022-11-05T11:31:48.245Z,10.84
2022-11-05T11:36:52.435Z,10.86
2022-11-05T11:41:59.015Z,10.88
2022-11-05T11:47:04.665Z,10.81
2022-11-05T11:52:19.696Z,10.37
2022-11-05T11:57:26.033Z,10.35
2022-11-05T12:02:42.118Z,10.77
2022-11-05T12:07:52.726Z,10.95
2022-11-05T12:13:17.656Z,11.14
2022-11-05T12:18:26.529Z,11.20
2022-11-05T12:23:44.116Z,11.10
2022-11-05T12:29:18.724Z,11.36
2022-11-05T12:34:34.614Z,11.61
2022-11-05T12:39:45.237Z,11.47
2022-11-05T12:44:56.385Z,11.58
2022-11-05T12:50:11.288Z,11.22
2022-11-05T12:55:16.776Z,11.17
2022-11-05T13:00:22.251Z,11.28
2022-11-05T13:05:31.050Z,11.20
2022-11-05T13:10:36.340Z,11.13
2022-11-05T13:15:50.777Z,11.14
2022-11-05T13:20:54.702Z,11.11
2022-11-05T13:26:01.198Z,11.12
2022-11-05T13:31:09.171Z,11.01
2022-11-05T13:36:33.382Z,11.02
2022-11-05T13:41:47.829Z,10.92
2022-11-05T13:47:04.008Z,10.86
2022-11-05T13:52:28.032Z,10.97
2022-11-05T13:57:49.811Z,10.82
2022-11-05T14:02:55.333Z,10.83
2022-11-05T14:07:59.235Z,10.69
2022-11-05T14:13:26.322Z,10.77
2022-11-05T14:18:39.467Z,10.67
2022-11-05T14:23:50.725Z,10.70
2022-11-05T14:29:26.089Z,10.69
2022-11-05T14:34:45.157Z,10.70
2022-11-05T14:39:48.044Z,10.63
2022-11-05T14:45:02.521Z,10.68
2022-11-05T14:50:12.210Z,10.62
2022-11-05T14:55:27.414Z,10.62
2022-11-05T15:00:51.169Z,10.55
2022-11-05T15:06:05.268Z,10.49
2022-11-05T15:11:13.831Z,10.51
2022-11-05T15:16:21.518Z,10.37
2022-11-05T15:21:25.860Z,10.40
2022-11-05T15:26:37.361Z,10.29
2022-11-05T15:31:41.205Z,10.20
2022-11-05T15:36:50.104Z,10.22
2022-11-05T15:41:52.678Z,10.03
2022-11-05T15:47:15.690Z,9.93
2022-11-05T15:52:20.976Z,9.93
2022-11-05T15:57:26.631Z,9.76
2022-11-05T16:02:32.382Z,9.67
2022-11-05T16:07:36.555Z,9.61
2022-11-05T16:12:39.133Z,9.51
2022-11-05T16:17:47.615Z,9.50
2022-11-05T16:22:53.725Z,9.34
2022-11-05T16:27:56.810Z,9.31
2022-11-05T16:33:07.525Z,9.28
2022-11-05T16:38:13.682Z,9.32
2022-11-05T16:43:19.235Z,9.36
2022-11-05T16:48:22.108Z,9.27
2022-11-05T16:53:26.010Z,9.23
2022-11-05T16:58:28.610Z,9.32
2022-11-05T17:03:31.210Z,9.25
2022-11-05T17:08:35.180Z,9.23
2022-11-05T17:13:37.796Z,9.11
2022-11-05T17:18:41.120Z,9.18
2022-11-05T17:23:45.612Z,9.18
2022-11-05T17:28:48.237Z,9.17
2022-11-05T17:33:50.789Z,9.05
2022-11-05T17:38:54.936Z,8.97
2022-11-05T17:43:58.499Z,8.86
2022-11-05T17:49:01.087Z,8.99
2022-11-05T17:54:05.033Z,9.03
2022-11-05T17:59:07.616Z,8.99
2022-11-05T18:04:10.250Z,8.97
2022-11-05T18:09:14.356Z,8.98
2022-11-05T18:14:22.828Z,8.99
2022-11-05T18:19:26.959Z,8.94
2022-11-05T18:24:30.911Z,8.93
2022-11-05T18:29:33.505Z,8.91
2022-11-05T18:34:36.660Z,8.85
2022-11-05T18:39:40.862Z,8.85
2022-11-05T18:44:43.444Z,8.82
2022-11-05T18:49:46.034Z,8.80
2022-11-05T18:54:49.987Z,8.82
2022-11-05T18:59:52.595Z,8.80
2022-11-05T19:05:26.834Z,8.83
2022-11-05T19:10:19.337Z,8.76
2022-11-05T19:15:21.931Z,8.76
2022-11-05T19:20:24.579Z,8.76
2022-11-05T19:25:29.539Z,8.79
2022-11-05T19:30:32.158Z,8.77
2022-11-05T19:35:40.890Z,8.77
2022-11-05T19:40:45.162Z,8.72
2022-11-05T19:45:47.737Z,8.78
2022-11-05T19:50:53.143Z,8.76
2022-11-05T19:55:57.063Z,8.77
2022-11-05T20:00:59.746Z,8.75
2022-11-05T20:06:03.184Z,8.69
2022-11-05T20:11:07.944Z,8.70
2022-11-05T20:16:20.293Z,8.68
2022-11-05T20:21:22.945Z,8.68
2022-11-05T20:26:27.010Z,8.68
2022-11-05T20:31:29.596Z,8.64
2022-11-05T20:36:32.202Z,8.66
2022-11-05T20:41:36.159Z,8.67
2022-11-05T20:46:39.058Z,8.63
2022-11-05T20:51:41.648Z,8.61
2022-11-05T20:56:45.561Z,8.63
2022-11-05T21:01:48.277Z,8.59
2022-11-05T21:06:51.030Z,8.55
2022-11-05T21:12:13.103Z,8.53
2022-11-05T21:17:15.890Z,8.54
2022-11-05T21:22:18.466Z,8.51
2022-11-05T21:27:22.384Z,8.48
2022-11-05T21:32:24.953Z,8.48
2022-11-05T21:37:27.709Z,8.46
2022-11-05T21:42:31.724Z,8.45
2022-11-05T21:47:34.548Z,8.43
2022-11-05T21:52:54.586Z,8.42
2022-11-05T21:58:15.868Z,8.40
2022-11-05T22:03:18.496Z,8.45
2022-11-05T22:08:21.064Z,8.40
2022-11-05T22:13:25.025Z,8.42
2022-11-05T22:18:27.595Z,8.45
2022-11-05T22:23:30.174Z,8.43
2022-11-05T22:28:34.100Z,8.44
2022-11-05T22:33:36.927Z,8.46
2022-11-05T22:38:39.933Z,8.44
2022-11-05T22:43:43.896Z,8.44
2022-11-05T22:48:46.715Z,8.45
2022-11-05T22:53:49.949Z,8.43
2022-11-05T22:58:54.356Z,8.40
2022-11-05T23:03:58.260Z,8.42
2022-11-05T23:09:21.217Z,8.40
2022-11-05T23:14:25.449Z,8.38
2022-11-05T23:19:45.373Z,8.36
2022-11-05T23:24:48.412Z,8.36
2022-11-05T23:29:52.338Z,8.35
2022-11-05T23:34:57.490Z,8.36
2022-11-05T23:40:00.105Z,8.35
2022-11-05T23:45:21.881Z,8.32
2022-11-05T23:50:25.217Z,8.31
2022-11-05T23:55:27.902Z,8.23
